sensor_id;sensor_type;location;lat;lon;timestamp;P1;durP1;ratioP1;P2;durP2;ratioP2
46407;SDS011;32110;45.724;21.276;2024-01-30T00:00:31;52.72;;;17.77;;
46407;SDS011;32110;45.724;21.276;2024-01-30T00:02:56;43.92;;;16.77;;
46407;SDS011;32110;45.724;21.276;2024-01-30T00:05:22;45.85;;;17.50;;
46407;SDS011;32110;45.724;21.276;2024-01-30T00:07:47;51.50;;;18.35;;
46407;SDS011;32110;45.724;21.276;2024-01-30T00:10:13;63.85;;;19.25;;
46407;SDS011;32110;45.724;21.276;2024-01-30T00:12:38;54.65;;;19.02;;
46407;SDS011;32110;45.724;21.276;2024-01-30T00:15:04;53.55;;;16.83;;
46407;SDS011;32110;45.724;21.276;2024-01-30T00:17:30;48.38;;;17.70;;
46407;SDS011;32110;45.724;21.276;2024-01-30T00:19:55;56.10;;;18.13;;
46407;SDS011;32110;45.724;21.276;2024-01-30T00:22:21;48.17;;;17.58;;
46407;SDS011;32110;45.724;21.276;2024-01-30T00:24:47;50.40;;;17.33;;
46407;SDS011;32110;45.724;21.276;2024-01-30T00:27:12;47.20;;;17.60;;
46407;SDS011;32110;45.724;21.276;2024-01-30T00:29:37;50.92;;;18.13;;
46407;SDS011;32110;45.724;21.276;2024-01-30T00:32:03;55.85;;;16.52;;
46407;SDS011;32110;45.724;21.276;2024-01-30T00:34:28;56.85;;;17.40;;
46407;SDS011;32110;45.724;21.276;2024-01-30T00:36:54;46.40;;;17.35;;
46407;SDS011;32110;45.724;21.276;2024-01-30T00:39:19;66.35;;;18.90;;
46407;SDS011;32110;45.724;21.276;2024-01-30T00:41:45;67.97;;;17.95;;
46407;SDS011;32110;45.724;21.276;2024-01-30T00:44:10;44.72;;;18.67;;
46407;SDS011;32110;45.724;21.276;2024-01-30T00:46:36;67.78;;;17.67;;
46407;SDS011;32110;45.724;21.276;2024-01-30T00:49:01;56.15;;;18.85;;
46407;SDS011;32110;45.724;21.276;2024-01-30T00:51:27;53.60;;;19.52;;
46407;SDS011;32110;45.724;21.276;2024-01-30T00:53:54;62.95;;;18.40;;
46407;SDS011;32110;45.724;21.276;2024-01-30T00:56:20;76.05;;;19.85;;
46407;SDS011;32110;45.724;21.276;2024-01-30T00:58:45;105.72;;;20.10;;
46407;SDS011;32110;45.724;21.276;2024-01-30T01:01:11;74.93;;;18.95;;
46407;SDS011;32110;45.724;21.276;2024-01-30T01:03:37;131.27;;;19.35;;
46407;SDS011;32110;45.724;21.276;2024-01-30T01:06:02;102.72;;;20.13;;
46407;SDS011;32110;45.724;21.276;2024-01-30T01:08:28;90.63;;;20.73;;
46407;SDS011;32110;45.724;21.276;2024-01-30T01:10:53;93.32;;;22.83;;
46407;SDS011;32110;45.724;21.276;2024-01-30T01:13:19;127.13;;;21.70;;
46407;SDS011;32110;45.724;21.276;2024-01-30T01:15:45;87.30;;;20.33;;
46407;SDS011;32110;45.724;21.276;2024-01-30T01:18:10;66.70;;;21.15;;
46407;SDS011;32110;45.724;21.276;2024-01-30T01:20:36;90.97;;;22.55;;
46407;SDS011;32110;45.724;21.276;2024-01-30T01:23:01;68.68;;;20.77;;
46407;SDS011;32110;45.724;21.276;2024-01-30T01:25:26;72.82;;;23.45;;
46407;SDS011;32110;45.724;21.276;2024-01-30T01:27:52;61.45;;;21.38;;
46407;SDS011;32110;45.724;21.276;2024-01-30T01:30:17;76.20;;;21.80;;
46407;SDS011;32110;45.724;21.276;2024-01-30T01:32:50;75.45;;;22.70;;
46407;SDS011;32110;45.724;21.276;2024-01-30T01:35:23;57.58;;;22.00;;
46407;SDS011;32110;45.724;21.276;2024-01-30T01:37:51;68.07;;;21.83;;
46407;SDS011;32110;45.724;21.276;2024-01-30T01:40:20;63.30;;;20.95;;
46407;SDS011;32110;45.724;21.276;2024-01-30T01:42:49;54.78;;;20.88;;
46407;SDS011;32110;45.724;21.276;2024-01-30T01:45:17;49.83;;;19.92;;
46407;SDS011;32110;45.724;21.276;2024-01-30T01:47:42;57.70;;;21.35;;
46407;SDS011;32110;45.724;21.276;2024-01-30T01:50:10;55.22;;;21.88;;
46407;SDS011;32110;45.724;21.276;2024-01-30T01:52:38;56.58;;;21.58;;
46407;SDS011;32110;45.724;21.276;2024-01-30T01:55:05;62.85;;;22.27;;
46407;SDS011;32110;45.724;21.276;2024-01-30T01:57:31;53.63;;;21.65;;
46407;SDS011;32110;45.724;21.276;2024-01-30T01:59:57;64.07;;;20.35;;
46407;SDS011;32110;45.724;21.276;2024-01-30T02:02:23;55.10;;;20.67;;
46407;SDS011;32110;45.724;21.276;2024-01-30T02:04:50;55.45;;;20.52;;
46407;SDS011;32110;45.724;21.276;2024-01-30T02:07:16;58.08;;;20.40;;
46407;SDS011;32110;45.724;21.276;2024-01-30T02:09:42;62.03;;;20.35;;
46407;SDS011;32110;45.724;21.276;2024-01-30T02:12:08;70.65;;;20.33;;
46407;SDS011;32110;45.724;21.276;2024-01-30T02:14:43;53.35;;;19.35;;
46407;SDS011;32110;45.724;21.276;2024-01-30T02:17:10;53.00;;;18.75;;
46407;SDS011;32110;45.724;21.276;2024-01-30T02:19:35;57.42;;;18.70;;
46407;SDS011;32110;45.724;21.276;2024-01-30T02:22:01;47.72;;;18.55;;
46407;SDS011;32110;45.724;21.276;2024-01-30T02:24:26;57.97;;;18.08;;
46407;SDS011;32110;45.724;21.276;2024-01-30T02:26:51;56.97;;;18.85;;
46407;SDS011;32110;45.724;21.276;2024-01-30T02:29:17;50.70;;;19.45;;
46407;SDS011;32110;45.724;21.276;2024-01-30T02:31:42;46.97;;;19.00;;
46407;SDS011;32110;45.724;21.276;2024-01-30T02:34:08;49.10;;;18.50;;
46407;SDS011;32110;45.724;21.276;2024-01-30T02:36:33;46.90;;;19.38;;
46407;SDS011;32110;45.724;21.276;2024-01-30T02:38:58;65.50;;;19.73;;
46407;SDS011;32110;45.724;21.276;2024-01-30T02:41:24;59.28;;;19.52;;
46407;SDS011;32110;45.724;21.276;2024-01-30T02:43:49;44.50;;;18.60;;
46407;SDS011;32110;45.724;21.276;2024-01-30T02:46:15;47.15;;;18.55;;
46407;SDS011;32110;45.724;21.276;2024-01-30T02:48:40;50.78;;;20.08;;
46407;SDS011;32110;45.724;21.276;2024-01-30T02:51:05;61.25;;;19.63;;
46407;SDS011;32110;45.724;21.276;2024-01-30T02:53:31;55.97;;;20.90;;
46407;SDS011;32110;45.724;21.276;2024-01-30T02:55:56;48.17;;;19.58;;
46407;SDS011;32110;45.724;21.276;2024-01-30T02:58:22;45.80;;;18.98;;
46407;SDS011;32110;45.724;21.276;2024-01-30T03:00:47;46.40;;;18.90;;
46407;SDS011;32110;45.724;21.276;2024-01-30T03:03:13;47.90;;;18.80;;
46407;SDS011;32110;45.724;21.276;2024-01-30T03:05:38;47.00;;;19.15;;
46407;SDS011;32110;45.724;21.276;2024-01-30T03:08:04;52.30;;;19.98;;
46407;SDS011;32110;45.724;21.276;2024-01-30T03:10:30;48.15;;;20.63;;
46407;SDS011;32110;45.724;21.276;2024-01-30T03:12:55;51.30;;;20.33;;
46407;SDS011;32110;45.724;21.276;2024-01-30T03:15:21;54.50;;;21.20;;
46407;SDS011;32110;45.724;21.276;2024-01-30T03:17:46;57.55;;;21.40;;
46407;SDS011;32110;45.724;21.276;2024-01-30T03:20:11;52.38;;;21.70;;
46407;SDS011;32110;45.724;21.276;2024-01-30T03:22:37;50.58;;;21.02;;
46407;SDS011;32110;45.724;21.276;2024-01-30T03:25:02;52.65;;;20.35;;
46407;SDS011;32110;45.724;21.276;2024-01-30T03:27:28;46.67;;;19.63;;
46407;SDS011;32110;45.724;21.276;2024-01-30T03:29:54;50.00;;;20.63;;
46407;SDS011;32110;45.724;21.276;2024-01-30T03:32:19;59.17;;;23.48;;
46407;SDS011;32110;45.724;21.276;2024-01-30T03:34:44;63.75;;;25.80;;
46407;SDS011;32110;45.724;21.276;2024-01-30T03:37:10;62.63;;;25.42;;
46407;SDS011;32110;45.724;21.276;2024-01-30T03:39:35;55.88;;;23.13;;
46407;SDS011;32110;45.724;21.276;2024-01-30T03:42:01;52.20;;;22.70;;
46407;SDS011;32110;45.724;21.276;2024-01-30T03:44:27;53.58;;;23.23;;
46407;SDS011;32110;45.724;21.276;2024-01-30T03:46:52;59.22;;;24.02;;
46407;SDS011;32110;45.724;21.276;2024-01-30T03:49:18;52.33;;;22.33;;
46407;SDS011;32110;45.724;21.276;2024-01-30T03:51:43;48.72;;;21.80;;
46407;SDS011;32110;45.724;21.276;2024-01-30T03:54:09;50.50;;;21.10;;
46407;SDS011;32110;45.724;21.276;2024-01-30T03:56:35;49.10;;;21.52;;
46407;SDS011;32110;45.724;21.276;2024-01-30T03:59:00;46.00;;;20.40;;
46407;SDS011;32110;45.724;21.276;2024-01-30T04:01:27;46.40;;;21.27;;
46407;SDS011;32110;45.724;21.276;2024-01-30T04:03:53;50.85;;;21.05;;
46407;SDS011;32110;45.724;21.276;2024-01-30T04:06:18;45.72;;;20.63;;
46407;SDS011;32110;45.724;21.276;2024-01-30T04:08:44;51.03;;;22.20;;
46407;SDS011;32110;45.724;21.276;2024-01-30T04:11:10;59.00;;;22.80;;
46407;SDS011;32110;45.724;21.276;2024-01-30T04:13:35;45.88;;;20.35;;
46407;SDS011;32110;45.724;21.276;2024-01-30T04:16:01;47.35;;;19.98;;
46407;SDS011;32110;45.724;21.276;2024-01-30T04:18:27;45.38;;;19.17;;
46407;SDS011;32110;45.724;21.276;2024-01-30T04:20:53;42.97;;;20.30;;
46407;SDS011;32110;45.724;21.276;2024-01-30T04:23:19;46.85;;;20.85;;
46407;SDS011;32110;45.724;21.276;2024-01-30T04:25:44;46.15;;;21.27;;
46407;SDS011;32110;45.724;21.276;2024-01-30T04:28:10;49.58;;;21.80;;
46407;SDS011;32110;45.724;21.276;2024-01-30T04:30:37;48.47;;;21.95;;
46407;SDS011;32110;45.724;21.276;2024-01-30T04:33:03;48.05;;;21.13;;
46407;SDS011;32110;45.724;21.276;2024-01-30T04:35:28;44.22;;;20.08;;
46407;SDS011;32110;45.724;21.276;2024-01-30T04:37:54;52.42;;;21.77;;
46407;SDS011;32110;45.724;21.276;2024-01-30T04:40:20;45.15;;;20.40;;
46407;SDS011;32110;45.724;21.276;2024-01-30T04:42:46;48.42;;;21.35;;
46407;SDS011;32110;45.724;21.276;2024-01-30T04:45:11;50.80;;;21.70;;
46407;SDS011;32110;45.724;21.276;2024-01-30T04:47:37;53.15;;;20.77;;
46407;SDS011;32110;45.724;21.276;2024-01-30T04:50:04;55.47;;;22.27;;
46407;SDS011;32110;45.724;21.276;2024-01-30T04:52:30;55.25;;;23.73;;
46407;SDS011;32110;45.724;21.276;2024-01-30T04:54:55;50.70;;;21.73;;
46407;SDS011;32110;45.724;21.276;2024-01-30T04:57:21;49.00;;;21.65;;
46407;SDS011;32110;45.724;21.276;2024-01-30T04:59:46;49.42;;;21.27;;
46407;SDS011;32110;45.724;21.276;2024-01-30T05:02:12;44.13;;;20.05;;
46407;SDS011;32110;45.724;21.276;2024-01-30T05:04:37;46.03;;;19.90;;
46407;SDS011;32110;45.724;21.276;2024-01-30T05:07:03;42.60;;;18.02;;
46407;SDS011;32110;45.724;21.276;2024-01-30T05:09:28;44.13;;;19.67;;
46407;SDS011;32110;45.724;21.276;2024-01-30T05:11:54;39.30;;;17.60;;
46407;SDS011;32110;45.724;21.276;2024-01-30T05:14:19;39.15;;;17.48;;
46407;SDS011;32110;45.724;21.276;2024-01-30T05:16:45;40.05;;;16.70;;
46407;SDS011;32110;45.724;21.276;2024-01-30T05:19:12;37.50;;;16.38;;
46407;SDS011;32110;45.724;21.276;2024-01-30T05:21:39;39.85;;;17.10;;
46407;SDS011;32110;45.724;21.276;2024-01-30T05:24:05;38.35;;;17.20;;
46407;SDS011;32110;45.724;21.276;2024-01-30T05:26:30;36.25;;;16.75;;
46407;SDS011;32110;45.724;21.276;2024-01-30T05:28:56;36.55;;;16.38;;
46407;SDS011;32110;45.724;21.276;2024-01-30T05:31:22;38.22;;;16.95;;
46407;SDS011;32110;45.724;21.276;2024-01-30T05:33:47;37.88;;;16.80;;
46407;SDS011;32110;45.724;21.276;2024-01-30T05:36:13;37.90;;;17.65;;
46407;SDS011;32110;45.724;21.276;2024-01-30T05:38:38;39.72;;;16.60;;
46407;SDS011;32110;45.724;21.276;2024-01-30T05:41:04;41.88;;;16.80;;
46407;SDS011;32110;45.724;21.276;2024-01-30T05:43:30;36.13;;;16.52;;
46407;SDS011;32110;45.724;21.276;2024-01-30T05:45:55;34.63;;;16.48;;
46407;SDS011;32110;45.724;21.276;2024-01-30T05:48:21;37.72;;;16.52;;
46407;SDS011;32110;45.724;21.276;2024-01-30T05:50:46;36.97;;;17.08;;
46407;SDS011;32110;45.724;21.276;2024-01-30T05:53:12;40.88;;;17.10;;
46407;SDS011;32110;45.724;21.276;2024-01-30T05:55:37;35.95;;;16.08;;
46407;SDS011;32110;45.724;21.276;2024-01-30T05:58:03;39.58;;;15.73;;
46407;SDS011;32110;45.724;21.276;2024-01-30T06:00:29;38.63;;;16.27;;
46407;SDS011;32110;45.724;21.276;2024-01-30T06:02:54;35.92;;;16.42;;
46407;SDS011;32110;45.724;21.276;2024-01-30T06:05:20;37.05;;;15.93;;
46407;SDS011;32110;45.724;21.276;2024-01-30T06:07:45;35.60;;;16.17;;
46407;SDS011;32110;45.724;21.276;2024-01-30T06:10:11;36.67;;;16.75;;
46407;SDS011;32110;45.724;21.276;2024-01-30T06:12:36;33.90;;;16.27;;
46407;SDS011;32110;45.724;21.276;2024-01-30T06:15:02;34.85;;;16.40;;
46407;SDS011;32110;45.724;21.276;2024-01-30T06:17:28;36.88;;;16.17;;
46407;SDS011;32110;45.724;21.276;2024-01-30T06:19:53;37.80;;;16.92;;
46407;SDS011;32110;45.724;21.276;2024-01-30T06:22:19;36.08;;;15.77;;
46407;SDS011;32110;45.724;21.276;2024-01-30T06:24:45;37.20;;;16.92;;
46407;SDS011;32110;45.724;21.276;2024-01-30T06:27:12;37.30;;;17.65;;
46407;SDS011;32110;45.724;21.276;2024-01-30T06:29:38;36.90;;;16.83;;
46407;SDS011;32110;45.724;21.276;2024-01-30T06:32:04;36.90;;;17.05;;
46407;SDS011;32110;45.724;21.276;2024-01-30T06:34:29;42.53;;;17.40;;
46407;SDS011;32110;45.724;21.276;2024-01-30T06:36:55;50.78;;;20.27;;
46407;SDS011;32110;45.724;21.276;2024-01-30T06:39:20;37.92;;;18.95;;
46407;SDS011;32110;45.724;21.276;2024-01-30T06:41:46;44.97;;;20.40;;
46407;SDS011;32110;45.724;21.276;2024-01-30T06:44:12;46.85;;;20.25;;
46407;SDS011;32110;45.724;21.276;2024-01-30T06:46:37;43.50;;;19.40;;
46407;SDS011;32110;45.724;21.276;2024-01-30T06:49:03;39.45;;;18.58;;
46407;SDS011;32110;45.724;21.276;2024-01-30T06:51:29;41.92;;;18.98;;
46407;SDS011;32110;45.724;21.276;2024-01-30T06:53:54;45.47;;;19.52;;
46407;SDS011;32110;45.724;21.276;2024-01-30T06:56:19;39.60;;;19.02;;
46407;SDS011;32110;45.724;21.276;2024-01-30T06:58:49;42.97;;;18.77;;
46407;SDS011;32110;45.724;21.276;2024-01-30T07:03:41;38.08;;;16.35;;
46407;SDS011;32110;45.724;21.276;2024-01-30T07:06:07;39.10;;;18.15;;
46407;SDS011;32110;45.724;21.276;2024-01-30T07:08:33;40.83;;;17.40;;
46407;SDS011;32110;45.724;21.276;2024-01-30T07:10:58;40.60;;;17.50;;
46407;SDS011;32110;45.724;21.276;2024-01-30T07:13:24;43.08;;;18.23;;
46407;SDS011;32110;45.724;21.276;2024-01-30T07:15:49;35.70;;;16.95;;
46407;SDS011;32110;45.724;21.276;2024-01-30T07:18:15;39.90;;;17.25;;
46407;SDS011;32110;45.724;21.276;2024-01-30T07:20:41;38.60;;;17.60;;
46407;SDS011;32110;45.724;21.276;2024-01-30T07:23:12;37.30;;;17.88;;
46407;SDS011;32110;45.724;21.276;2024-01-30T07:25:41;37.53;;;18.00;;
46407;SDS011;32110;45.724;21.276;2024-01-30T07:28:07;38.22;;;17.73;;
46407;SDS011;32110;45.724;21.276;2024-01-30T07:30:37;40.03;;;18.63;;
46407;SDS011;32110;45.724;21.276;2024-01-30T07:33:03;33.80;;;17.20;;
46407;SDS011;32110;45.724;21.276;2024-01-30T07:35:28;37.88;;;17.85;;
46407;SDS011;32110;45.724;21.276;2024-01-30T07:37:54;45.47;;;19.05;;
46407;SDS011;32110;45.724;21.276;2024-01-30T07:40:19;41.58;;;19.38;;
46407;SDS011;32110;45.724;21.276;2024-01-30T07:42:44;39.63;;;18.27;;
46407;SDS011;32110;45.724;21.276;2024-01-30T07:45:10;43.00;;;19.50;;
46407;SDS011;32110;45.724;21.276;2024-01-30T07:47:35;42.80;;;19.63;;
46407;SDS011;32110;45.724;21.276;2024-01-30T07:50:01;41.22;;;17.15;;
46407;SDS011;32110;45.724;21.276;2024-01-30T07:52:26;40.20;;;17.48;;
46407;SDS011;32110;45.724;21.276;2024-01-30T07:54:52;40.08;;;18.00;;
46407;SDS011;32110;45.724;21.276;2024-01-30T07:57:17;41.90;;;18.15;;
46407;SDS011;32110;45.724;21.276;2024-01-30T07:59:45;39.85;;;18.55;;
46407;SDS011;32110;45.724;21.276;2024-01-30T08:02:14;44.30;;;20.02;;
46407;SDS011;32110;45.724;21.276;2024-01-30T08:04:39;30.80;;;14.10;;
46407;SDS011;32110;45.724;21.276;2024-01-30T08:07:04;43.72;;;19.73;;
46407;SDS011;32110;45.724;21.276;2024-01-30T08:09:30;45.25;;;20.25;;
46407;SDS011;32110;45.724;21.276;2024-01-30T08:11:58;43.70;;;18.50;;
46407;SDS011;32110;45.724;21.276;2024-01-30T08:14:26;37.67;;;18.60;;
46407;SDS011;32110;45.724;21.276;2024-01-30T08:16:51;43.47;;;19.15;;
46407;SDS011;32110;45.724;21.276;2024-01-30T08:19:17;39.27;;;18.37;;
46407;SDS011;32110;45.724;21.276;2024-01-30T08:21:42;36.60;;;17.45;;
46407;SDS011;32110;45.724;21.276;2024-01-30T08:24:08;39.35;;;18.58;;
46407;SDS011;32110;45.724;21.276;2024-01-30T08:26:33;37.53;;;17.37;;
46407;SDS011;32110;45.724;21.276;2024-01-30T08:29:07;39.00;;;18.98;;
46407;SDS011;32110;45.724;21.276;2024-01-30T08:31:33;36.85;;;17.38;;
46407;SDS011;32110;45.724;21.276;2024-01-30T08:33:58;39.63;;;18.23;;
46407;SDS011;32110;45.724;21.276;2024-01-30T08:36:23;37.70;;;16.33;;
46407;SDS011;32110;45.724;21.276;2024-01-30T08:38:49;37.72;;;18.02;;
46407;SDS011;32110;45.724;21.276;2024-01-30T08:41:14;37.67;;;17.63;;
46407;SDS011;32110;45.724;21.276;2024-01-30T08:43:39;34.43;;;16.53;;
46407;SDS011;32110;45.724;21.276;2024-01-30T08:46:04;36.30;;;17.42;;
46407;SDS011;32110;45.724;21.276;2024-01-30T08:48:30;37.73;;;16.97;;
46407;SDS011;32110;45.724;21.276;2024-01-30T08:50:55;35.53;;;17.20;;
46407;SDS011;32110;45.724;21.276;2024-01-30T08:53:20;34.97;;;16.30;;
46407;SDS011;32110;45.724;21.276;2024-01-30T08:55:46;36.30;;;17.30;;
46407;SDS011;32110;45.724;21.276;2024-01-30T08:58:11;38.15;;;17.38;;
46407;SDS011;32110;45.724;21.276;2024-01-30T09:00:40;36.80;;;17.08;;
46407;SDS011;32110;45.724;21.276;2024-01-30T09:03:05;36.33;;;17.05;;
46407;SDS011;32110;45.724;21.276;2024-01-30T09:05:31;39.50;;;18.17;;
46407;SDS011;32110;45.724;21.276;2024-01-30T09:07:56;35.33;;;17.10;;
46407;SDS011;32110;45.724;21.276;2024-01-30T09:10:21;39.75;;;18.05;;
46407;SDS011;32110;45.724;21.276;2024-01-30T09:12:47;44.03;;;18.77;;
46407;SDS011;32110;45.724;21.276;2024-01-30T09:15:13;37.72;;;17.58;;
46407;SDS011;32110;45.724;21.276;2024-01-30T09:17:39;40.92;;;19.08;;
46407;SDS011;32110;45.724;21.276;2024-01-30T09:20:04;38.58;;;17.58;;
46407;SDS011;32110;45.724;21.276;2024-01-30T09:22:30;38.00;;;17.52;;
46407;SDS011;32110;45.724;21.276;2024-01-30T09:24:56;37.95;;;17.25;;
46407;SDS011;32110;45.724;21.276;2024-01-30T09:27:22;37.38;;;17.70;;
46407;SDS011;32110;45.724;21.276;2024-01-30T09:29:48;35.00;;;17.52;;
46407;SDS011;32110;45.724;21.276;2024-01-30T09:32:13;38.08;;;17.20;;
46407;SDS011;32110;45.724;21.276;2024-01-30T09:34:38;37.30;;;17.08;;
46407;SDS011;32110;45.724;21.276;2024-01-30T09:37:04;36.17;;;17.85;;
46407;SDS011;32110;45.724;21.276;2024-01-30T09:39:30;36.42;;;17.40;;
46407;SDS011;32110;45.724;21.276;2024-01-30T09:42:00;36.15;;;16.05;;
46407;SDS011;32110;45.724;21.276;2024-01-30T09:44:30;36.00;;;16.77;;
46407;SDS011;32110;45.724;21.276;2024-01-30T09:46:57;32.95;;;16.52;;
46407;SDS011;32110;45.724;21.276;2024-01-30T09:49:29;32.00;;;15.35;;
46407;SDS011;32110;45.724;21.276;2024-01-30T09:51:57;30.52;;;15.30;;
46407;SDS011;32110;45.724;21.276;2024-01-30T09:54:22;31.77;;;15.70;;
46407;SDS011;32110;45.724;21.276;2024-01-30T09:56:48;28.02;;;14.23;;
46407;SDS011;32110;45.724;21.276;2024-01-30T09:59:13;33.63;;;15.48;;
46407;SDS011;32110;45.724;21.276;2024-01-30T10:01:39;30.23;;;15.73;;
46407;SDS011;32110;45.724;21.276;2024-01-30T10:04:06;29.05;;;14.40;;
46407;SDS011;32110;45.724;21.276;2024-01-30T10:06:32;32.92;;;14.38;;
46407;SDS011;32110;45.724;21.276;2024-01-30T10:08:57;31.30;;;14.77;;
46407;SDS011;32110;45.724;21.276;2024-01-30T10:11:23;28.48;;;14.90;;
46407;SDS011;32110;45.724;21.276;2024-01-30T10:13:48;29.30;;;13.73;;
46407;SDS011;32110;45.724;21.276;2024-01-30T10:16:14;26.60;;;13.60;;
46407;SDS011;32110;45.724;21.276;2024-01-30T10:18:41;29.17;;;13.95;;
46407;SDS011;32110;45.724;21.276;2024-01-30T10:21:07;28.50;;;14.15;;
46407;SDS011;32110;45.724;21.276;2024-01-30T10:23:33;29.63;;;14.50;;
46407;SDS011;32110;45.724;21.276;2024-01-30T10:25:59;29.58;;;13.40;;
46407;SDS011;32110;45.724;21.276;2024-01-30T10:28:27;25.50;;;12.98;;
46407;SDS011;32110;45.724;21.276;2024-01-30T10:31:00;25.40;;;12.45;;
46407;SDS011;32110;45.724;21.276;2024-01-30T10:33:26;25.73;;;13.23;;
46407;SDS011;32110;45.724;21.276;2024-01-30T10:35:54;30.95;;;13.70;;
46407;SDS011;32110;45.724;21.276;2024-01-30T10:38:25;23.60;;;12.57;;
46407;SDS011;32110;45.724;21.276;2024-01-30T10:40:55;26.52;;;12.75;;
46407;SDS011;32110;45.724;21.276;2024-01-30T10:43:22;21.33;;;11.63;;
46407;SDS011;32110;45.724;21.276;2024-01-30T10:45:48;26.70;;;12.10;;
46407;SDS011;32110;45.724;21.276;2024-01-30T10:48:18;20.48;;;10.40;;
46407;SDS011;32110;45.724;21.276;2024-01-30T10:50:46;14.32;;;6.95;;
46407;SDS011;32110;45.724;21.276;2024-01-30T10:53:13;19.00;;;9.43;;
46407;SDS011;32110;45.724;21.276;2024-01-30T10:55:40;19.67;;;9.85;;
46407;SDS011;32110;45.724;21.276;2024-01-30T10:58:06;22.42;;;9.93;;
46407;SDS011;32110;45.724;21.276;2024-01-30T11:00:33;17.55;;;9.25;;
46407;SDS011;32110;45.724;21.276;2024-01-30T11:02:59;16.75;;;9.23;;
46407;SDS011;32110;45.724;21.276;2024-01-30T11:05:25;15.20;;;9.02;;
46407;SDS011;32110;45.724;21.276;2024-01-30T11:07:52;14.18;;;8.05;;
46407;SDS011;32110;45.724;21.276;2024-01-30T11:10:18;14.88;;;8.13;;
46407;SDS011;32110;45.724;21.276;2024-01-30T11:12:45;20.00;;;9.32;;
46407;SDS011;32110;45.724;21.276;2024-01-30T11:15:14;18.15;;;9.15;;
46407;SDS011;32110;45.724;21.276;2024-01-30T11:20:21;16.73;;;8.65;;
46407;SDS011;32110;45.724;21.276;2024-01-30T11:22:53;18.08;;;8.68;;
46407;SDS011;32110;45.724;21.276;2024-01-30T11:25:21;17.25;;;8.90;;
46407;SDS011;32110;45.724;21.276;2024-01-30T11:27:49;17.10;;;9.00;;
46407;SDS011;32110;45.724;21.276;2024-01-30T11:30:28;13.38;;;7.85;;
46407;SDS011;32110;45.724;21.276;2024-01-30T11:33:05;11.27;;;6.15;;
46407;SDS011;32110;45.724;21.276;2024-01-30T11:35:39;9.93;;;5.20;;
46407;SDS011;32110;45.724;21.276;2024-01-30T11:38:09;11.10;;;6.40;;
46407;SDS011;32110;45.724;21.276;2024-01-30T11:40:36;11.27;;;6.45;;
46407;SDS011;32110;45.724;21.276;2024-01-30T11:43:03;12.55;;;7.25;;
46407;SDS011;32110;45.724;21.276;2024-01-30T11:45:30;13.73;;;6.30;;
46407;SDS011;32110;45.724;21.276;2024-01-30T11:47:56;10.93;;;6.80;;
46407;SDS011;32110;45.724;21.276;2024-01-30T11:50:22;11.90;;;6.78;;
46407;SDS011;32110;45.724;21.276;2024-01-30T11:52:49;15.00;;;7.38;;
46407;SDS011;32110;45.724;21.276;2024-01-30T11:55:15;14.15;;;7.57;;
46407;SDS011;32110;45.724;21.276;2024-01-30T11:57:41;16.15;;;7.85;;
46407;SDS011;32110;45.724;21.276;2024-01-30T12:00:13;19.70;;;11.02;;
46407;SDS011;32110;45.724;21.276;2024-01-30T12:02:43;14.85;;;8.30;;
46407;SDS011;32110;45.724;21.276;2024-01-30T12:05:13;14.57;;;8.10;;
46407;SDS011;32110;45.724;21.276;2024-01-30T12:07:39;13.70;;;7.07;;
46407;SDS011;32110;45.724;21.276;2024-01-30T12:10:04;12.45;;;7.43;;
46407;SDS011;32110;45.724;21.276;2024-01-30T12:12:30;16.48;;;8.57;;
46407;SDS011;32110;45.724;21.276;2024-01-30T12:14:56;15.48;;;8.30;;
46407;SDS011;32110;45.724;21.276;2024-01-30T12:17:31;12.98;;;7.55;;
46407;SDS011;32110;45.724;21.276;2024-01-30T12:20:08;11.23;;;6.65;;
46407;SDS011;32110;45.724;21.276;2024-01-30T12:22:37;12.45;;;7.38;;
46407;SDS011;32110;45.724;21.276;2024-01-30T12:25:13;14.52;;;7.15;;
46407;SDS011;32110;45.724;21.276;2024-01-30T12:27:39;11.27;;;6.60;;
46407;SDS011;32110;45.724;21.276;2024-01-30T12:30:14;10.88;;;6.00;;
46407;SDS011;32110;45.724;21.276;2024-01-30T12:32:43;12.65;;;6.72;;
46407;SDS011;32110;45.724;21.276;2024-01-30T12:35:12;11.73;;;6.72;;
46407;SDS011;32110;45.724;21.276;2024-01-30T12:37:38;13.63;;;7.38;;
46407;SDS011;32110;45.724;21.276;2024-01-30T12:40:03;10.10;;;6.07;;
46407;SDS011;32110;45.724;21.276;2024-01-30T12:42:29;11.02;;;6.28;;
46407;SDS011;32110;45.724;21.276;2024-01-30T12:44:56;10.25;;;6.65;;
46407;SDS011;32110;45.724;21.276;2024-01-30T12:47:22;11.82;;;7.03;;
46407;SDS011;32110;45.724;21.276;2024-01-30T12:49:48;12.00;;;7.30;;
46407;SDS011;32110;45.724;21.276;2024-01-30T12:52:16;13.10;;;8.10;;
46407;SDS011;32110;45.724;21.276;2024-01-30T12:54:42;12.97;;;7.67;;
46407;SDS011;32110;45.724;21.276;2024-01-30T12:57:07;12.27;;;7.45;;
46407;SDS011;32110;45.724;21.276;2024-01-30T12:59:33;13.15;;;7.82;;
46407;SDS011;32110;45.724;21.276;2024-01-30T13:02:00;11.45;;;6.95;;
46407;SDS011;32110;45.724;21.276;2024-01-30T13:04:26;11.15;;;6.95;;
46407;SDS011;32110;45.724;21.276;2024-01-30T13:06:52;12.75;;;7.00;;
46407;SDS011;32110;45.724;21.276;2024-01-30T13:09:18;13.20;;;6.95;;
46407;SDS011;32110;45.724;21.276;2024-01-30T13:11:43;11.90;;;6.93;;
46407;SDS011;32110;45.724;21.276;2024-01-30T13:14:08;12.27;;;7.05;;
46407;SDS011;32110;45.724;21.276;2024-01-30T13:16:34;11.98;;;7.50;;
46407;SDS011;32110;45.724;21.276;2024-01-30T13:18:59;10.90;;;6.72;;
46407;SDS011;32110;45.724;21.276;2024-01-30T13:21:26;11.50;;;6.80;;
46407;SDS011;32110;45.724;21.276;2024-01-30T13:23:52;15.40;;;7.13;;
46407;SDS011;32110;45.724;21.276;2024-01-30T13:26:19;15.23;;;7.05;;
46407;SDS011;32110;45.724;21.276;2024-01-30T13:28:48;10.77;;;6.70;;
46407;SDS011;32110;45.724;21.276;2024-01-30T13:31:14;13.10;;;7.50;;
46407;SDS011;32110;45.724;21.276;2024-01-30T13:33:40;12.98;;;7.10;;
46407;SDS011;32110;45.724;21.276;2024-01-30T13:36:06;13.05;;;7.32;;
46407;SDS011;32110;45.724;21.276;2024-01-30T13:38:32;16.45;;;7.13;;
46407;SDS011;32110;45.724;21.276;2024-01-30T13:40:58;13.38;;;7.40;;
46407;SDS011;32110;45.724;21.276;2024-01-30T13:43:24;12.30;;;7.15;;
46407;SDS011;32110;45.724;21.276;2024-01-30T13:45:49;12.43;;;6.75;;
46407;SDS011;32110;45.724;21.276;2024-01-30T13:48:15;12.55;;;6.78;;
46407;SDS011;32110;45.724;21.276;2024-01-30T13:50:41;10.70;;;6.05;;
46407;SDS011;32110;45.724;21.276;2024-01-30T13:53:06;11.90;;;7.15;;
46407;SDS011;32110;45.724;21.276;2024-01-30T13:55:32;11.98;;;6.93;;
46407;SDS011;32110;45.724;21.276;2024-01-30T13:57:57;11.35;;;6.90;;
46407;SDS011;32110;45.724;21.276;2024-01-30T14:00:23;14.52;;;7.20;;
46407;SDS011;32110;45.724;21.276;2024-01-30T14:02:50;16.67;;;7.38;;
46407;SDS011;32110;45.724;21.276;2024-01-30T14:05:16;13.85;;;7.57;;
46407;SDS011;32110;45.724;21.276;2024-01-30T14:07:41;13.13;;;7.68;;
46407;SDS011;32110;45.724;21.276;2024-01-30T14:10:09;13.45;;;6.82;;